Mentor, OH (44061)

12:22 PM EDT on August 20, 2014 (GMT -0400)
Mentorfire5 | Change Station
CLOSE
Current Station
Personal Weather Station
Location: Mentor, OH
Elevation: 620 ft
Nearby Weather Stations

Elev 620 ft 41.70 °N, 81.34 °W | Updated 6 minutes ago

Scattered Clouds
Scattered Clouds
78.9 °F
Feels Like 82 °F
N
2.0
Wind Variable Wind from SW
Gusts 12.0 mph

Today
High -- | Low -- °F
--% Chance of Precip.
Yesterday
High -- | Low -- °F
Precip. -- in
6:38 AM 8:17 PM
Waning Crescent, 20% visible
Pressure 29.89 in
Visibility 10.0 miles
Clouds Scattered Clouds 25000 ft
Heat Index 82 °F
Dew Point 70 °F
Humidity 75%
Rainfall 0.09 in
Snow Depth Not available.
UV 5 out of 12
Pollen 8.80 out of 12
Ozone Good
PM2.5 Good
Flu Activity Not available.
METAR KCGF 201445Z 18010KT 10SM SCT250 25/20 A2989

More Conditions Fewer Conditions

Pressure 29.89 in
Visibility 10.0 miles
Clouds Scattered Clouds 25000 ft
Heat Index 82 °F
Dew Point 70 °F
Humidity 75%
Rainfall 0.09 in
Snow Depth Not available.
UV 5 out of 12
Pollen 8.80 out of 12
Ozone Good
PM2.5 Good
Flu Activity Not available.
METAR KCGF 201445Z 18010KT 10SM SCT250 25/20 A2989

More Conditions Fewer Conditions

10-Day Weather Forecast

Almanac

Astronomy

Aug. 20, 2014 Rise Set
Actual Time 6:38 AM EDT 8:17 PM EDT
Civil Twilight 6:09 AM EDT 8:47 PM EDT
Nautical Twilight 5:33 AM EDT 9:22 PM EDT
Astronomical Twilight 4:55 AM EDT 10:00 PM EDT
Moon 2:16 AM EDT 5:03 PM EDT
Length of Visible Light 14h 37m
Length of Day
13h 38m
Tomorrow will be 2m 34s shorter.
Waning Crescent, 20% of the Moon is Illuminated
Today
Waning Crescent
Aug 25
New
Sep 2
First Quarter
Sep 8
Full
Sep 15
Last Quarter

Today's Extremes

State Highs State Lows

Community

WunderPhotos

Upload Photos

1,745,688 photos uploaded!

Nearby

Air Quality

  Air Quality AQ Index Pollutant
Yesterday Good
PM10
Yesterday Good
OZONE
Current Good
OZONE
Current Good
PM2.5
Wednesday Moderate
PM2.5
Wednesday Moderate
OZONE
Thursday Moderate
PM2.5
Thursday Moderate
OZONE
Friday Moderate
PM2.5
Friday Moderate
OZONE
Saturday Moderate
PM2.5
Saturday Moderate
OZONE

Snow Depth

Station Depth Elevation
No new snow has been reported.

Earthquake Activity

City Distance Mag. Time & Date
No recent earthquake activity has been reported nearby.
Minimum magnitude displayed is 2.5.

Coastal Water Temperatures

Place Temperature
Fairport, OH 75.0 °F
Cleveland, OH 72.0 °F

Nearby Weather Stations